aviador You're here:

KSIK Decoded Metar

in
Report Time2017-09-21 21:15:00
UTC Time2017-09-21 21:19:27
Flight Rules vfr VFR
Wind180° at 05 kt
W.Decomp.*RWY 20: 4.7 kt HW 1.7 kt LCW
W.Rank180° ranks 6
Current wind is below 180° avg. (6.0)
Visibility9999 m
Phenomena:N/A
Clouds:N/A
Expected CloudBase > 6,000 ft AGL from Temp-Dew spread
CeilingNone
Temp35°C
Dew Point20°C (41% RH)
Heat Index37.5°C
QNH1015 hPa
Raw Report
KSIK 212115Z AUTO 18005KT 10SM CLR 35/20 A2998 RMK AO2=

Extra information for KSIK:More info

Social comments